createdAt,value
2022-12-28T00:02:30.751Z,2.20
2022-12-28T00:05:02.481Z,2.20
2022-12-28T00:07:34.272Z,2.20
2022-12-28T00:10:09.201Z,2.30
2022-12-28T00:12:41.140Z,2.30
2022-12-28T00:15:15.341Z,2.40
2022-12-28T00:17:49.776Z,2.40
2022-12-28T00:20:21.592Z,2.40
2022-12-28T00:22:53.439Z,2.40
2022-12-28T00:25:25.216Z,2.40
2022-12-28T00:27:57.079Z,2.40
2022-12-28T00:30:28.873Z,2.40
2022-12-28T00:33:03.151Z,2.40
2022-12-28T00:35:34.906Z,2.50
2022-12-28T00:38:06.749Z,2.50
2022-12-28T00:40:38.503Z,2.40
2022-12-28T00:43:10.284Z,2.40
2022-12-28T00:45:48.293Z,2.40
2022-12-28T00:48:20.266Z,2.40
2022-12-28T00:50:52.107Z,2.40
2022-12-28T00:53:23.900Z,2.40
2022-12-28T00:55:55.653Z,2.40
2022-12-28T00:58:29.949Z,2.30
2022-12-28T01:01:04.390Z,2.30
2022-12-28T01:03:36.282Z,2.30
2022-12-28T01:06:08.619Z,2.30
2022-12-28T01:08:45.549Z,2.30
2022-12-28T01:11:29.585Z,2.40
2022-12-28T01:14:01.634Z,2.40
2022-12-28T01:16:38.200Z,2.40
2022-12-28T01:19:11.978Z,2.30
2022-12-28T01:21:43.765Z,2.30
2022-12-28T01:24:15.833Z,2.30
2022-12-28T01:26:47.611Z,2.30
2022-12-28T01:29:19.429Z,2.30
2022-12-28T01:31:51.257Z,2.40
2022-12-28T01:34:23.048Z,2.40
2022-12-28T01:36:54.814Z,2.40
2022-12-28T01:39:26.623Z,2.40
2022-12-28T01:41:58.403Z,2.40
2022-12-28T01:44:43.865Z,2.50
2022-12-28T01:47:17.899Z,2.50
2022-12-28T01:49:59.259Z,2.50
2022-12-28T01:52:31.112Z,2.50
2022-12-28T01:55:14.523Z,2.50
2022-12-28T01:58:11.625Z,2.50
2022-12-28T02:00:43.691Z,2.50
2022-12-28T02:03:19.971Z,2.50
2022-12-28T02:05:53.451Z,2.50
2022-12-28T02:08:35.704Z,2.50
2022-12-28T02:11:08.513Z,2.50
2022-12-28T02:13:42.757Z,2.50
2022-12-28T02:16:17.242Z,2.50
2022-12-28T02:18:49.864Z,2.40
2022-12-28T02:21:24.346Z,2.40
2022-12-28T02:23:56.338Z,2.40
2022-12-28T02:26:45.912Z,2.30
2022-12-28T02:29:23.899Z,2.30
2022-12-28T02:32:04.253Z,2.30
2022-12-28T02:34:46.490Z,2.30
2022-12-28T02:37:27.420Z,2.30
2022-12-28T02:40:04.023Z,2.30
2022-12-28T02:42:36.672Z,2.40
2022-12-28T02:45:45.375Z,2.40
2022-12-28T02:48:35.636Z,2.50
2022-12-28T02:51:22.329Z,2.50
2022-12-28T02:53:56.875Z,2.50
2022-12-28T02:56:53.903Z,2.50
2022-12-28T02:59:31.535Z,2.60
2022-12-28T03:02:09.249Z,2.60
2022-12-28T03:04:41.083Z,2.60
2022-12-28T03:07:50.236Z,2.60
2022-12-28T03:10:24.756Z,2.70
2022-12-28T03:13:29.849Z,2.60
2022-12-28T03:16:08.071Z,2.60
2022-12-28T03:19:02.352Z,2.60
2022-12-28T03:21:53.367Z,2.60
2022-12-28T03:24:44.477Z,2.50
2022-12-28T03:27:35.860Z,2.50
2022-12-28T03:30:29.515Z,2.50
2022-12-28T03:33:01.817Z,2.50
2022-12-28T03:35:37.789Z,2.50
2022-12-28T03:38:12.062Z,2.40
2022-12-28T03:40:52.162Z,2.40
2022-12-28T03:43:42.455Z,2.40
2022-12-28T03:46:19.665Z,2.40
2022-12-28T03:48:52.006Z,2.30
2022-12-28T03:51:24.496Z,2.30
2022-12-28T03:53:56.503Z,2.20
2022-12-28T03:56:29.018Z,2.10
2022-12-28T03:59:00.848Z,2.10
2022-12-28T04:01:32.668Z,2.10
2022-12-28T04:04:06.762Z,2.10
2022-12-28T04:06:38.571Z,2.00
2022-12-28T04:09:12.948Z,2.10
2022-12-28T04:11:44.703Z,2.10
2022-12-28T04:14:16.472Z,2.10
2022-12-28T04:16:48.266Z,2.10
2022-12-28T04:19:22.530Z,2.00
2022-12-28T04:21:54.308Z,2.00
2022-12-28T04:24:26.141Z,1.90
2022-12-28T04:26:57.921Z,1.80
2022-12-28T04:29:29.705Z,1.70
2022-12-28T04:32:04.015Z,1.70
2022-12-28T04:34:35.866Z,1.60
2022-12-28T04:37:07.651Z,1.50
2022-12-28T04:39:54.801Z,1.40
2022-12-28T04:42:28.824Z,1.40
2022-12-28T04:45:00.594Z,1.30
2022-12-28T04:47:32.359Z,1.30
2022-12-28T04:50:04.204Z,1.30
2022-12-28T04:52:38.278Z,1.20
2022-12-28T04:55:32.072Z,1.20
2022-12-28T04:58:01.807Z,1.20
2022-12-28T05:00:33.645Z,1.10
2022-12-28T05:03:05.475Z,1.10
2022-12-28T05:05:37.331Z,1.00
2022-12-28T05:08:09.090Z,1.00
2022-12-28T05:10:40.925Z,1.00
2022-12-28T05:13:12.769Z,1.00
2022-12-28T05:15:44.565Z,1.00
2022-12-28T05:18:18.446Z,1.00
2022-12-28T05:20:50.233Z,0.90
2022-12-28T05:23:21.970Z,0.90
2022-12-28T05:25:53.939Z,0.90
2022-12-28T05:28:26.408Z,0.90
2022-12-28T05:31:07.788Z,0.80
2022-12-28T05:33:39.821Z,0.80
2022-12-28T05:36:13.087Z,0.90
2022-12-28T05:38:45.327Z,1.00
2022-12-28T05:41:19.483Z,1.10
2022-12-28T05:43:51.529Z,1.20
2022-12-28T05:46:24.977Z,1.30
2022-12-28T05:48:56.866Z,1.40
2022-12-28T05:51:29.556Z,1.40
2022-12-28T05:54:04.420Z,1.50
2022-12-28T05:56:36.652Z,1.60
2022-12-28T05:59:08.464Z,1.60
2022-12-28T06:01:41.081Z,1.70
2022-12-28T06:04:19.920Z,1.70
2022-12-28T06:06:51.764Z,1.70
2022-12-28T06:09:23.520Z,1.70
2022-12-28T06:11:55.316Z,1.70
2022-12-28T06:14:29.589Z,1.70
2022-12-28T06:17:01.432Z,1.70
2022-12-28T06:19:33.224Z,1.70
2022-12-28T06:22:05.032Z,1.70
2022-12-28T06:24:39.112Z,1.60
2022-12-28T06:27:13.403Z,1.60
2022-12-28T06:29:45.149Z,1.60
2022-12-28T06:32:16.973Z,1.60
2022-12-28T06:34:48.716Z,1.60
2022-12-28T06:37:20.495Z,1.60
2022-12-28T06:39:52.262Z,1.60
2022-12-28T06:42:24.095Z,1.60
2022-12-28T06:44:55.868Z,1.60
2022-12-28T06:47:27.704Z,1.60
2022-12-28T06:49:59.596Z,1.70
2022-12-28T06:52:32.624Z,1.70
2022-12-28T06:55:04.530Z,1.70
2022-12-28T06:57:36.341Z,1.70
2022-12-28T07:00:08.480Z,1.70
2022-12-28T07:02:40.385Z,1.80
2022-12-28T07:05:12.298Z,1.80
2022-12-28T07:07:45.551Z,1.80
2022-12-28T07:10:19.650Z,1.80
2022-12-28T07:12:51.456Z,1.90
2022-12-28T07:15:23.237Z,1.90
2022-12-28T07:17:55.176Z,1.90
2022-12-28T07:20:26.964Z,2.00
2022-12-28T07:23:01.268Z,2.00
2022-12-28T07:25:33.031Z,2.00
2022-12-28T07:28:04.880Z,2.00
2022-12-28T07:30:36.662Z,2.00
2022-12-28T07:33:08.531Z,2.00
2022-12-28T07:35:43.152Z,2.00
2022-12-28T07:38:21.319Z,2.00
2022-12-28T07:40:53.374Z,2.00
2022-12-28T07:43:25.166Z,2.00
2022-12-28T07:46:06.030Z,2.00
2022-12-28T07:48:38.623Z,2.00
2022-12-28T07:51:18.229Z,1.90
2022-12-28T07:53:50.819Z,1.90
2022-12-28T07:56:23.086Z,1.90
2022-12-28T07:58:56.297Z,1.90
2022-12-28T08:01:29.688Z,2.00
2022-12-28T08:04:03.259Z,2.00
2022-12-28T08:06:36.349Z,2.00
2022-12-28T08:09:09.192Z,2.00
2022-12-28T08:11:42.516Z,2.00
2022-12-28T08:14:20.389Z,2.00
2022-12-28T08:16:52.155Z,2.10
2022-12-28T08:19:23.960Z,2.10
2022-12-28T08:21:55.775Z,2.10
2022-12-28T08:24:27.565Z,2.10
2022-12-28T08:26:59.371Z,2.10
2022-12-28T08:29:31.188Z,2.10
2022-12-28T08:32:05.467Z,2.10
2022-12-28T08:34:37.268Z,2.10
2022-12-28T08:37:09.097Z,2.10
2022-12-28T08:39:40.926Z,2.20
2022-12-28T08:42:12.668Z,2.20
2022-12-28T08:44:44.454Z,2.20
2022-12-28T08:47:16.242Z,2.20
2022-12-28T08:49:50.508Z,2.20
2022-12-28T08:52:22.274Z,2.30
2022-12-28T08:54:54.088Z,2.30
2022-12-28T08:57:25.846Z,2.30
2022-12-28T08:59:57.709Z,2.20
2022-12-28T09:02:29.561Z,2.20
2022-12-28T09:05:01.460Z,2.30
2022-12-28T09:07:33.214Z,2.30
2022-12-28T09:10:05.284Z,2.30
2022-12-28T09:12:37.122Z,2.30
2022-12-28T09:15:09.376Z,2.30
2022-12-28T09:17:41.168Z,2.30
2022-12-28T09:20:13.000Z,2.30
2022-12-28T09:22:44.777Z,2.40
2022-12-28T09:25:16.634Z,2.40
2022-12-28T09:27:52.293Z,2.40
2022-12-28T09:30:26.551Z,2.40
2022-12-28T09:33:17.073Z,2.40
2022-12-28T09:35:51.087Z,2.40
2022-12-28T09:38:22.862Z,2.50
2022-12-28T09:40:54.741Z,2.50
2022-12-28T09:43:27.280Z,2.50
2022-12-28T09:45:59.164Z,2.50
2022-12-28T09:48:31.221Z,2.50
2022-12-28T09:51:03.414Z,2.50
2022-12-28T09:53:36.524Z,2.50
2022-12-28T09:56:27.145Z,2.50
2022-12-28T09:59:01.753Z,2.50
2022-12-28T10:01:38.459Z,2.50
2022-12-28T10:04:11.186Z,2.50
2022-12-28T10:06:43.808Z,2.60
2022-12-28T10:09:25.427Z,2.60
2022-12-28T10:11:58.236Z,2.60
2022-12-28T10:14:33.488Z,2.70
2022-12-28T10:17:07.525Z,2.70
2022-12-28T10:19:39.420Z,2.70
2022-12-28T10:22:12.962Z,2.70
2022-12-28T10:24:47.743Z,2.70
2022-12-28T10:27:19.513Z,2.80
2022-12-28T10:29:52.099Z,2.80
2022-12-28T10:32:26.236Z,2.80
2022-12-28T10:34:59.521Z,2.80
2022-12-28T10:37:34.775Z,2.80
2022-12-28T10:40:14.971Z,2.90
2022-12-28T10:42:50.450Z,2.90
2022-12-28T10:45:33.055Z,2.80
2022-12-28T10:48:15.542Z,2.90
2022-12-28T10:50:50.811Z,2.90
2022-12-28T10:53:31.895Z,2.90
2022-12-28T10:56:15.009Z,2.90
2022-12-28T10:58:50.794Z,2.90
2022-12-28T11:01:29.590Z,2.90
2022-12-28T11:04:03.713Z,2.90
2022-12-28T11:06:37.033Z,2.90
2022-12-28T11:09:15.066Z,3.00
2022-12-28T11:11:52.612Z,3.00
2022-12-28T11:14:32.284Z,3.00
2022-12-28T11:17:18.613Z,3.00
2022-12-28T11:20:01.536Z,3.00
2022-12-28T11:22:33.914Z,3.10
2022-12-28T11:25:09.156Z,3.10
2022-12-28T11:27:41.117Z,3.10
2022-12-28T11:30:17.436Z,3.20
2022-12-28T11:32:52.263Z,3.20
2022-12-28T11:35:26.883Z,3.30
2022-12-28T11:37:59.725Z,3.30
2022-12-28T11:40:44.080Z,3.30
2022-12-28T11:43:31.193Z,3.30
2022-12-28T11:46:08.752Z,3.30
2022-12-28T11:48:43.609Z,3.40
2022-12-28T11:51:23.226Z,3.40
2022-12-28T11:54:13.778Z,3.50
2022-12-28T11:56:45.549Z,3.50
2022-12-28T11:59:27.899Z,3.60
2022-12-28T12:02:01.044Z,3.60
2022-12-28T12:04:37.835Z,3.60
2022-12-28T12:07:15.753Z,3.60
2022-12-28T12:09:49.153Z,3.60
2022-12-28T12:12:30.306Z,3.50
2022-12-28T12:15:14.703Z,3.50
2022-12-28T12:17:49.633Z,3.50
2022-12-28T12:20:33.267Z,3.50
2022-12-28T12:23:34.249Z,3.50
2022-12-28T12:26:21.181Z,3.50
2022-12-28T12:28:54.158Z,3.50
2022-12-28T12:31:31.130Z,3.50
2022-12-28T12:34:07.315Z,3.50
2022-12-28T12:36:41.882Z,3.50
2022-12-28T12:39:23.823Z,3.60
2022-12-28T12:42:04.976Z,3.60
2022-12-28T12:44:37.422Z,3.60
2022-12-28T12:47:12.268Z,3.60
2022-12-28T12:49:46.814Z,3.60
2022-12-28T12:52:21.785Z,3.70
2022-12-28T12:54:59.775Z,3.70
2022-12-28T12:57:40.312Z,3.70
2022-12-28T13:00:16.818Z,3.70
2022-12-28T13:03:04.660Z,3.70
2022-12-28T13:05:38.898Z,3.80
2022-12-28T13:08:20.539Z,3.70
2022-12-28T13:10:53.392Z,3.80
2022-12-28T13:13:35.738Z,3.80
2022-12-28T13:16:12.049Z,3.80
2022-12-28T13:18:57.633Z,3.80
2022-12-28T13:21:40.423Z,3.80
2022-12-28T13:24:23.654Z,3.80
2022-12-28T13:26:56.147Z,3.80
2022-12-28T13:29:31.805Z,3.80
2022-12-28T13:32:03.789Z,3.80
2022-12-28T13:34:36.159Z,3.80
2022-12-28T13:37:14.617Z,3.80
2022-12-28T13:39:47.986Z,3.80
2022-12-28T13:42:42.901Z,3.80
2022-12-28T13:45:16.625Z,3.80
2022-12-28T13:47:50.567Z,3.80
2022-12-28T13:50:24.243Z,3.90
2022-12-28T13:53:00.818Z,3.90
2022-12-28T13:55:36.384Z,3.80
2022-12-28T13:58:13.820Z,3.90
2022-12-28T14:00:47.183Z,3.90
2022-12-28T14:03:19.347Z,3.80
2022-12-28T14:05:55.224Z,3.90
2022-12-28T14:08:28.288Z,3.80
2022-12-28T14:11:00.384Z,3.90
2022-12-28T14:13:32.915Z,3.80
2022-12-28T14:16:05.075Z,3.80
2022-12-28T14:18:37.450Z,3.80
2022-12-28T14:21:09.322Z,3.80
2022-12-28T14:23:41.172Z,3.80
2022-12-28T14:26:20.615Z,3.80
2022-12-28T14:28:54.688Z,3.80
2022-12-28T14:31:33.415Z,3.70
2022-12-28T14:34:06.756Z,3.70
2022-12-28T14:36:51.332Z,3.70
2022-12-28T14:39:28.973Z,3.70
2022-12-28T14:42:02.238Z,3.70
2022-12-28T14:44:36.648Z,3.70
2022-12-28T14:47:27.011Z,3.70
2022-12-28T14:49:59.589Z,3.70
2022-12-28T14:52:35.042Z,3.70
2022-12-28T14:55:25.779Z,3.80
2022-12-28T14:58:00.167Z,3.80
2022-12-28T15:00:38.388Z,3.80
2022-12-28T15:03:20.214Z,3.70
2022-12-28T15:05:53.305Z,3.70
2022-12-28T15:08:28.441Z,3.70
2022-12-28T15:13:39.560Z,3.70
2022-12-28T15:16:12.817Z,3.70
2022-12-28T15:18:45.689Z,3.70
2022-12-28T15:21:18.863Z,3.70
2022-12-28T15:23:51.433Z,3.70
2022-12-28T15:26:24.210Z,3.80
2022-12-28T15:28:56.042Z,3.70
2022-12-28T15:31:27.929Z,3.80
2022-12-28T15:34:01.826Z,3.70
2022-12-28T15:36:36.004Z,3.80
2022-12-28T15:39:07.866Z,3.80
2022-12-28T15:41:49.560Z,3.80
2022-12-28T15:44:21.461Z,3.90
2022-12-28T15:46:53.828Z,3.90
2022-12-28T15:49:26.567Z,3.90
2022-12-28T15:51:59.892Z,3.90
2022-12-28T15:54:31.724Z,3.90
2022-12-28T15:57:03.638Z,3.90
2022-12-28T15:59:35.702Z,3.90
2022-12-28T16:02:09.534Z,3.90
2022-12-28T16:04:41.613Z,3.90
2022-12-28T16:07:13.440Z,3.90
2022-12-28T16:09:47.905Z,3.90
2022-12-28T16:12:19.758Z,3.90
2022-12-28T16:14:51.534Z,4.00
2022-12-28T16:17:23.368Z,4.00
2022-12-28T16:19:55.130Z,4.00
2022-12-28T16:22:27.157Z,4.00
2022-12-28T16:25:01.387Z,4.00
2022-12-28T16:27:33.203Z,3.90
2022-12-28T16:30:05.818Z,4.00
2022-12-28T16:32:37.694Z,4.00
2022-12-28T16:35:09.767Z,3.90
2022-12-28T16:37:41.614Z,4.00
2022-12-28T16:40:13.417Z,4.00
2022-12-28T16:42:46.182Z,3.90
2022-12-28T16:45:18.149Z,4.00
2022-12-28T16:47:49.993Z,4.00
2022-12-28T16:50:21.743Z,3.90
2022-12-28T16:52:53.566Z,3.90
2022-12-28T16:55:25.344Z,4.00
2022-12-28T16:57:57.275Z,4.00
2022-12-28T17:00:29.035Z,4.00
2022-12-28T17:03:00.947Z,4.00
2022-12-28T17:05:36.191Z,4.00
2022-12-28T17:08:08.529Z,4.00
2022-12-28T17:10:43.082Z,4.00
2022-12-28T17:13:16.323Z,4.00
2022-12-28T17:15:48.837Z,4.00
2022-12-28T17:18:23.292Z,4.00
2022-12-28T17:20:55.175Z,4.10
2022-12-28T17:23:27.023Z,4.10
2022-12-28T17:25:58.820Z,4.10
2022-12-28T17:28:33.036Z,4.10
2022-12-28T17:31:07.647Z,4.10
2022-12-28T17:33:44.739Z,4.20
2022-12-28T17:36:16.699Z,4.20
2022-12-28T17:38:51.158Z,4.20
2022-12-28T17:41:24.503Z,4.20
2022-12-28T17:43:57.383Z,4.20
2022-12-28T17:46:30.052Z,4.30
2022-12-28T17:49:01.946Z,4.30
2022-12-28T17:51:35.847Z,4.30
2022-12-28T17:54:09.821Z,4.30
2022-12-28T17:56:42.156Z,4.40
2022-12-28T17:59:15.127Z,4.40
2022-12-28T18:01:47.070Z,4.40
2022-12-28T18:04:19.041Z,4.40
2022-12-28T18:06:50.865Z,4.40
2022-12-28T18:09:27.710Z,4.50
2022-12-28T18:12:00.295Z,4.50
2022-12-28T18:14:32.107Z,4.50
2022-12-28T18:17:06.933Z,4.50
2022-12-28T18:19:40.369Z,4.60
2022-12-28T18:22:14.595Z,4.60
2022-12-28T18:24:48.733Z,4.60
2022-12-28T18:27:20.610Z,4.60
2022-12-28T18:29:52.423Z,4.60
2022-12-28T18:32:26.541Z,4.60
2022-12-28T18:34:58.444Z,4.70
2022-12-28T18:37:32.868Z,4.70
2022-12-28T18:40:04.970Z,4.70
2022-12-28T18:42:36.712Z,4.70
2022-12-28T18:45:09.253Z,4.70
2022-12-28T18:47:41.050Z,4.80
2022-12-28T18:50:12.944Z,4.80
2022-12-28T18:52:45.828Z,4.80
2022-12-28T18:55:18.176Z,4.90
2022-12-28T18:57:49.974Z,4.90
2022-12-28T19:00:21.864Z,4.90
2022-12-28T19:02:56.211Z,4.90
2022-12-28T19:05:28.177Z,4.90
2022-12-28T19:08:02.583Z,4.90
2022-12-28T19:10:36.482Z,5.00
2022-12-28T19:13:10.410Z,5.00
2022-12-28T19:15:42.285Z,4.90
2022-12-28T19:18:14.114Z,4.90
2022-12-28T19:20:46.147Z,5.00
2022-12-28T19:23:17.936Z,5.00
2022-12-28T19:25:49.757Z,5.00
2022-12-28T19:28:21.541Z,5.00
2022-12-28T19:30:53.456Z,5.00
2022-12-28T19:33:25.471Z,5.00
2022-12-28T19:35:57.520Z,5.10
2022-12-28T19:38:29.349Z,5.10
2022-12-28T19:41:05.639Z,5.10
2022-12-28T19:43:37.495Z,5.10
2022-12-28T19:46:19.713Z,5.20
2022-12-28T19:48:54.713Z,5.20
2022-12-28T19:51:30.534Z,5.20
2022-12-28T19:54:03.432Z,5.30
2022-12-28T19:56:35.226Z,5.30
2022-12-28T19:59:07.434Z,5.30
2022-12-28T20:01:39.561Z,5.30
2022-12-28T20:04:13.831Z,5.30
2022-12-28T20:06:46.170Z,5.30
2022-12-28T20:09:17.920Z,5.30
2022-12-28T20:11:49.870Z,5.30
2022-12-28T20:14:24.955Z,5.30
2022-12-28T20:16:57.202Z,5.30
2022-12-28T20:19:31.225Z,5.30
2022-12-28T20:22:03.064Z,5.40
2022-12-28T20:24:34.860Z,5.40
2022-12-28T20:27:06.741Z,5.40
2022-12-28T20:29:38.580Z,5.40
2022-12-28T20:32:14.055Z,5.40
2022-12-28T20:34:45.885Z,5.40
2022-12-28T20:37:17.757Z,5.40
2022-12-28T20:39:49.531Z,5.40
2022-12-28T20:42:39.974Z,5.40
2022-12-28T20:45:11.740Z,5.40
2022-12-28T20:47:43.590Z,5.40
2022-12-28T20:50:15.469Z,5.40
2022-12-28T20:52:49.648Z,5.50
2022-12-28T20:55:21.518Z,5.50
2022-12-28T20:57:53.744Z,5.50
2022-12-28T21:00:25.835Z,5.60
2022-12-28T21:02:57.675Z,5.60
2022-12-28T21:05:29.433Z,5.60
2022-12-28T21:08:01.358Z,5.60
2022-12-28T21:10:33.184Z,5.60
2022-12-28T21:13:05.018Z,5.60
2022-12-28T21:15:39.489Z,5.60
2022-12-28T21:18:11.342Z,5.70
2022-12-28T21:20:49.924Z,5.70
2022-12-28T21:23:21.845Z,5.70
2022-12-28T21:25:59.418Z,5.70
2022-12-28T21:28:31.253Z,5.70
2022-12-28T21:31:04.970Z,5.70
2022-12-28T21:33:37.825Z,5.70
2022-12-28T21:36:13.492Z,5.70
2022-12-28T21:38:46.076Z,5.80
2022-12-28T21:41:41.612Z,5.80
2022-12-28T21:44:16.382Z,5.80
2022-12-28T21:46:49.113Z,5.80
2022-12-28T21:49:21.165Z,5.80
2022-12-28T21:51:59.533Z,5.80
2022-12-28T21:54:31.459Z,5.80
2022-12-28T21:57:06.257Z,5.80
2022-12-28T21:59:39.242Z,5.80
2022-12-28T22:02:32.426Z,5.80
2022-12-28T22:05:23.686Z,5.80
2022-12-28T22:08:15.476Z,5.80
2022-12-28T22:11:06.036Z,5.80
2022-12-28T22:13:37.900Z,5.90
2022-12-28T22:16:09.822Z,5.90
2022-12-28T22:21:33.409Z,5.90
2022-12-28T22:24:07.914Z,5.90
2022-12-28T22:26:39.884Z,5.90
2022-12-28T22:29:12.672Z,5.90
2022-12-28T22:31:44.505Z,5.90
2022-12-28T22:34:16.498Z,5.90
2022-12-28T22:36:48.303Z,5.90
2022-12-28T22:39:20.215Z,5.90
2022-12-28T22:41:52.046Z,5.90
2022-12-28T22:44:23.840Z,5.90
2022-12-28T22:46:57.769Z,5.90
2022-12-28T22:49:29.519Z,5.90
2022-12-28T22:52:03.728Z,5.90
2022-12-28T22:54:35.583Z,6.00
2022-12-28T22:57:07.488Z,6.00
2022-12-28T22:59:41.419Z,6.00
2022-12-28T23:02:13.722Z,6.00
2022-12-28T23:04:45.645Z,6.00
2022-12-28T23:07:18.084Z,6.00
2022-12-28T23:09:50.030Z,6.00
2022-12-28T23:12:22.013Z,6.00
2022-12-28T23:15:12.445Z,6.00
2022-12-28T23:17:44.583Z,6.00
2022-12-28T23:20:37.688Z,6.00
2022-12-28T23:23:28.475Z,6.00
2022-12-28T23:26:19.669Z,6.00
2022-12-28T23:28:51.486Z,6.00
2022-12-28T23:31:23.409Z,6.00
2022-12-28T23:33:55.317Z,6.00
2022-12-28T23:36:27.080Z,6.00
2022-12-28T23:38:58.869Z,6.00
2022-12-28T23:41:48.831Z,6.00
2022-12-28T23:44:24.505Z,6.00
2022-12-28T23:46:59.349Z,6.00
2022-12-28T23:49:31.715Z,6.00
2022-12-28T23:52:06.024Z,6.00
2022-12-28T23:54:37.858Z,6.00
2022-12-28T23:57:11.961Z,6.00
2022-12-28T23:59:44.191Z,5.90
